Time,TemperatureF,DewpointF,PressureIn,WindDirection,WindDirectionDegrees,WindSpeedMPH,WindSpeedGustMPH,Humidity,HourlyPrecipIn,Conditions,Clouds,dailyrainin,SoftwareType,DateUTC
2013-06-14 00:00:00,64.7,58.7,29.77,NNW,330,0.0,13.0,81,0.00,,,0.37,VWS V14.01,2013-06-14 04:00:00,
2013-06-14 00:01:00,64.7,58.7,29.77,NNW,330,0.0,13.0,81,0.00,,,0.37,VWS V14.01,2013-06-14 04:01:00,
2013-06-14 00:02:00,64.7,58.7,29.77,WNW,285,1.0,13.0,81,0.00,,,0.37,VWS V14.01,2013-06-14 04:02:00,
2013-06-14 00:03:00,64.7,59.4,29.77,WNW,285,0.0,13.0,83,0.00,,,0.37,VWS V14.01,2013-06-14 04:03:00,
2013-06-14 00:04:00,64.7,59.4,29.77,WNW,285,0.0,13.0,83,0.00,,,0.37,VWS V14.01,2013-06-14 04:04:00,
2013-06-14 00:09:00,64.3,58.7,29.77,WNW,284,0.0,13.0,82,0.00,,,0.00,VWS V14.01,2013-06-14 04:09:00,
2013-06-14 00:14:00,64.0,58.7,29.77,WNW,284,0.0,13.0,83,0.00,,,0.00,VWS V14.01,2013-06-14 04:14:00,
2013-06-14 00:19:00,63.7,58.5,29.77,WNW,284,0.0,13.0,83,0.00,,,0.00,VWS V14.01,2013-06-14 04:19:00,
2013-06-14 00:24:00,63.2,58.3,29.78,WNW,284,0.0,13.0,84,0.00,,,0.00,VWS V14.01,2013-06-14 04:24:00,
2013-06-14 00:29:00,62.9,58.3,29.78,WNW,284,0.0,13.0,85,0.00,,,0.00,VWS V14.01,2013-06-14 04:29:00,
2013-06-14 00:34:00,62.9,58.0,29.78,WNW,284,0.0,13.0,84,0.00,,,0.00,VWS V14.01,2013-06-14 04:34:00,
2013-06-14 00:39:00,63.1,57.5,29.79,SSW,193,0.0,13.0,82,0.00,,,0.00,VWS V14.01,2013-06-14 04:39:00,
2013-06-14 00:44:00,63.5,56.9,29.79,SE,144,0.0,13.0,79,0.00,,,0.00,VWS V14.01,2013-06-14 04:44:00,
2013-06-14 00:49:00,63.5,57.6,29.79,East,82,0.0,13.0,81,0.00,,,0.00,VWS V14.01,2013-06-14 04:49:00,
2013-06-14 00:55:00,63.4,58.2,29.79,East,82,0.0,13.0,83,0.00,,,0.00,VWS V14.01,2013-06-14 04:55:00,
2013-06-14 01:00:00,63.1,57.2,29.79,East,82,0.0,13.0,81,0.00,,,0.00,VWS V14.01,2013-06-14 05:00:00,
2013-06-14 01:05:00,63.1,57.2,29.79,East,82,0.0,13.0,81,0.00,,,0.00,VWS V14.01,2013-06-14 05:05:00,
2013-06-14 01:10:00,62.9,57.7,29.78,East,82,0.0,13.0,83,0.00,,,0.00,VWS V14.01,2013-06-14 05:10:00,
2013-06-14 01:15:00,62.7,57.5,29.78,East,82,0.0,13.0,83,0.00,,,0.00,VWS V14.01,2013-06-14 05:15:00,
2013-06-14 01:20:00,62.6,57.7,29.78,East,82,2.0,13.0,84,0.00,,,0.00,VWS V14.01,2013-06-14 05:20:00,
2013-06-14 01:25:00,62.7,56.1,29.80,NNE,28,0.0,13.0,79,0.00,,,0.00,VWS V14.01,2013-06-14 05:25:00,
2013-06-14 01:30:00,62.9,57.0,29.80,NNE,28,0.0,13.0,81,0.00,,,0.00,VWS V14.01,2013-06-14 05:30:00,
2013-06-14 01:35:00,62.7,57.8,29.80,NNE,28,0.0,13.0,84,0.00,,,0.00,VWS V14.01,2013-06-14 05:35:00,
2013-06-14 01:40:00,62.3,57.7,29.80,NNE,28,0.0,13.0,85,0.00,,,0.00,VWS V14.01,2013-06-14 05:40:00,
2013-06-14 01:45:00,61.8,57.9,29.80,NNE,28,0.0,13.0,87,0.00,,,0.00,VWS V14.01,2013-06-14 05:45:00,
2013-06-14 01:50:00,61.2,57.9,29.80,NW,321,1.0,13.0,89,0.00,,,0.00,VWS V14.01,2013-06-14 05:50:00,
2013-06-14 01:55:00,60.9,58.0,29.80,NW,321,0.0,13.0,90,0.00,,,0.00,VWS V14.01,2013-06-14 05:55:00,
2013-06-14 02:00:00,60.5,57.9,29.80,NW,321,0.0,13.0,91,0.00,,,0.00,VWS V14.01,2013-06-14 06:00:00,
2013-06-14 02:05:00,60.2,57.6,29.80,NW,321,0.0,13.0,91,0.00,,,0.00,VWS V14.01,2013-06-14 06:05:00,
2013-06-14 02:10:00,59.9,57.3,29.80,NW,321,0.0,13.0,91,0.00,,,0.00,VWS V14.01,2013-06-14 06:10:00,
2013-06-14 02:15:00,59.8,57.5,29.80,NW,321,0.0,13.0,92,0.00,,,0.00,VWS V14.01,2013-06-14 06:15:00,
2013-06-14 02:20:00,59.6,57.3,29.80,NW,321,1.0,13.0,92,0.00,,,0.00,VWS V14.01,2013-06-14 06:20:00,
2013-06-14 02:25:00,59.6,57.3,29.80,NW,321,0.0,13.0,92,0.00,,,0.00,VWS V14.01,2013-06-14 06:25:00,
2013-06-14 02:30:00,59.3,57.0,29.80,NW,321,0.0,13.0,92,0.00,,,0.00,VWS V14.01,2013-06-14 06:30:00,
2013-06-14 02:35:00,59.2,56.9,29.80,NW,321,0.0,13.0,92,0.00,,,0.00,VWS V14.01,2013-06-14 06:35:00,
2013-06-14 02:40:00,59.0,57.0,29.80,NW,323,0.0,13.0,93,0.00,,,0.00,VWS V14.01,2013-06-14 06:40:00,
2013-06-14 02:45:00,58.9,56.9,29.80,NW,323,0.0,13.0,93,0.00,,,0.00,VWS V14.01,2013-06-14 06:45:00,
2013-06-14 02:50:00,58.9,56.9,29.80,NW,323,0.0,13.0,93,0.00,,,0.00,VWS V14.01,2013-06-14 06:50:00,
2013-06-14 02:56:00,58.7,56.7,29.80,NW,323,0.0,13.0,93,0.00,,,0.00,VWS V14.01,2013-06-14 06:56:00,
2013-06-14 03:01:00,58.4,56.4,29.80,NW,323,0.0,13.0,93,0.00,,,0.00,VWS V14.01,2013-06-14 07:01:00,
2013-06-14 03:06:00,58.3,56.3,29.80,NW,323,0.0,13.0,93,0.00,,,0.00,VWS V14.01,2013-06-14 07:06:00,
2013-06-14 03:11:00,58.1,56.1,29.80,NW,323,0.0,13.0,93,0.00,,,0.00,VWS V14.01,2013-06-14 07:11:00,
2013-06-14 03:16:00,58.1,56.1,29.80,NW,323,0.0,13.0,93,0.00,,,0.00,VWS V14.01,2013-06-14 07:16:00,
2013-06-14 03:21:00,57.8,55.8,29.80,NW,323,0.0,13.0,93,0.00,,,0.00,VWS V14.01,2013-06-14 07:21:00,
2013-06-14 03:26:00,57.6,55.6,29.80,NW,323,0.0,13.0,93,0.00,,,0.00,VWS V14.01,2013-06-14 07:26:00,
2013-06-14 03:31:00,57.6,55.9,29.80,NW,323,0.0,13.0,94,0.00,,,0.00,VWS V14.01,2013-06-14 07:31:00,
2013-06-14 03:36:00,57.6,55.9,29.79,NW,323,0.0,13.0,94,0.00,,,0.00,VWS V14.01,2013-06-14 07:36:00,
2013-06-14 03:41:00,57.5,55.8,29.79,NW,323,2.0,13.0,94,0.00,,,0.00,VWS V14.01,2013-06-14 07:41:00,
2013-06-14 03:46:00,57.5,55.8,29.79,NW,323,0.0,13.0,94,0.00,,,0.00,VWS V14.01,2013-06-14 07:46:00,
2013-06-14 03:51:00,57.3,55.6,29.79,NW,323,0.0,13.0,94,0.00,,,0.00,VWS V14.01,2013-06-14 07:51:00,
2013-06-14 03:56:00,57.2,55.5,29.79,NW,323,0.0,13.0,94,0.00,,,0.00,VWS V14.01,2013-06-14 07:56:00,
2013-06-14 04:01:00,57.0,55.3,29.79,NW,323,0.0,13.0,94,0.00,,,0.00,VWS V14.01,2013-06-14 08:01:00,
2013-06-14 04:06:00,57.0,55.3,29.80,NW,323,0.0,13.0,94,0.00,,,0.00,VWS V14.01,2013-06-14 08:06:00,
2013-06-14 04:11:00,56.9,55.2,29.80,NW,323,0.0,13.0,94,0.00,,,0.00,VWS V14.01,2013-06-14 08:11:00,
2013-06-14 04:16:00,56.9,55.2,29.80,NW,323,0.0,13.0,94,0.00,,,0.00,VWS V14.01,2013-06-14 08:16:00,
2013-06-14 04:21:00,56.7,55.0,29.79,NW,323,0.0,13.0,94,0.00,,,0.00,VWS V14.01,2013-06-14 08:21:00,
2013-06-14 04:26:00,56.7,55.0,29.79,NW,323,0.0,13.0,94,0.00,,,0.00,VWS V14.01,2013-06-14 08:26:00,
2013-06-14 04:31:00,56.9,55.5,29.79,NW,323,0.0,13.0,95,0.00,,,0.00,VWS V14.01,2013-06-14 08:31:00,
2013-06-14 04:36:00,56.9,55.5,29.79,NW,323,0.0,13.0,95,0.00,,,0.00,VWS V14.01,2013-06-14 08:36:00,
2013-06-14 04:41:00,57.0,55.6,29.79,NW,323,0.0,13.0,95,0.00,,,0.00,VWS V14.01,2013-06-14 08:41:00,
2013-06-14 04:46:00,57.0,55.6,29.79,NW,323,0.0,13.0,95,0.00,,,0.00,VWS V14.01,2013-06-14 08:46:00,
2013-06-14 04:52:00,57.0,55.6,29.79,NW,323,0.0,13.0,95,0.00,,,0.00,VWS V14.01,2013-06-14 08:52:00,
2013-06-14 04:57:00,57.0,55.6,29.79,NW,323,0.0,13.0,95,0.00,,,0.00,VWS V14.01,2013-06-14 08:57:00,
2013-06-14 05:02:00,57.2,55.8,29.79,NW,323,0.0,13.0,95,0.00,,,0.00,VWS V14.01,2013-06-14 09:02:00,
2013-06-14 05:07:00,57.3,55.9,29.79,NW,323,0.0,13.0,95,0.00,,,0.00,VWS V14.01,2013-06-14 09:07:00,
2013-06-14 05:12:00,57.5,56.1,29.79,NW,323,1.0,13.0,95,0.00,,,0.00,VWS V14.01,2013-06-14 09:12:00,
2013-06-14 05:17:00,57.6,56.2,29.79,NW,323,0.0,13.0,95,0.00,,,0.00,VWS V14.01,2013-06-14 09:17:00,
2013-06-14 05:22:00,57.6,56.2,29.80,NW,323,0.0,13.0,95,0.00,,,0.00,VWS V14.01,2013-06-14 09:22:00,
2013-06-14 05:27:00,57.6,55.9,29.80,NW,323,0.0,13.0,94,0.00,,,0.00,VWS V14.01,2013-06-14 09:27:00,
2013-06-14 05:32:00,57.8,56.4,29.80,NW,323,1.0,13.0,95,0.00,,,0.00,VWS V14.01,2013-06-14 09:32:00,
2013-06-14 05:37:00,57.8,56.1,29.80,NW,323,0.0,13.0,94,0.00,,,0.00,VWS V14.01,2013-06-14 09:37:00,
2013-06-14 05:42:00,57.8,56.1,29.80,NW,323,0.0,13.0,94,0.00,,,0.00,VWS V14.01,2013-06-14 09:42:00,
2013-06-14 05:47:00,58.0,56.3,29.80,NW,323,0.0,13.0,94,0.00,,,0.00,VWS V14.01,2013-06-14 09:47:00,
2013-06-14 05:52:00,58.0,56.3,29.81,NW,323,0.0,13.0,94,0.00,,,0.00,VWS V14.01,2013-06-14 09:52:00,
2013-06-14 05:57:00,58.0,56.3,29.81,NW,323,0.0,13.0,94,0.00,,,0.00,VWS V14.01,2013-06-14 09:57:00,
2013-06-14 06:02:00,58.0,56.0,29.81,NW,323,0.0,13.0,93,0.00,,,0.00,VWS V14.01,2013-06-14 10:02:00,
2013-06-14 06:07:00,58.0,56.0,29.82,ENE,58,0.0,13.0,93,0.00,,,0.00,VWS V14.01,2013-06-14 10:07:00,
2013-06-14 06:12:00,57.8,55.8,29.82,ENE,58,0.0,13.0,93,0.00,,,0.00,VWS V14.01,2013-06-14 10:12:00,
2013-06-14 06:17:00,57.6,55.6,29.82,ENE,58,0.0,13.0,93,0.00,,,0.00,VWS V14.01,2013-06-14 10:17:00,
2013-06-14 06:22:00,57.6,55.6,29.82,ENE,58,0.0,13.0,93,0.00,,,0.00,VWS V14.01,2013-06-14 10:22:00,
2013-06-14 06:27:00,57.5,55.5,29.82,ENE,58,0.0,13.0,93,0.00,,,0.00,VWS V14.01,2013-06-14 10:27:00,
2013-06-14 06:33:00,57.5,55.5,29.82,ENE,58,0.0,13.0,93,0.00,,,0.00,VWS V14.01,2013-06-14 10:33:00,
2013-06-14 06:38:00,57.3,55.3,29.83,ENE,58,0.0,13.0,93,0.00,,,0.00,VWS V14.01,2013-06-14 10:38:00,
2013-06-14 06:43:00,57.3,55.3,29.83,ENE,58,0.0,13.0,93,0.00,,,0.00,VWS V14.01,2013-06-14 10:43:00,
2013-06-14 06:48:00,57.3,55.6,29.83,ENE,58,0.0,13.0,94,0.00,,,0.00,VWS V14.01,2013-06-14 10:48:00,
2013-06-14 06:53:00,57.2,55.5,29.83,ENE,58,0.0,13.0,94,0.00,,,0.00,VWS V14.01,2013-06-14 10:53:00,
2013-06-14 06:58:00,57.3,55.6,29.83,ENE,58,0.0,13.0,94,0.00,,,0.00,VWS V14.01,2013-06-14 10:58:00,
2013-06-14 07:03:00,57.3,55.6,29.83,ENE,58,0.0,13.0,94,0.00,,,0.00,VWS V14.01,2013-06-14 11:03:00,
2013-06-14 07:08:00,57.5,55.8,29.84,ENE,58,0.0,13.0,94,0.00,,,0.00,VWS V14.01,2013-06-14 11:08:00,
2013-06-14 07:13:00,57.5,55.8,29.84,ENE,58,0.0,13.0,94,0.00,,,0.00,VWS V14.01,2013-06-14 11:13:00,
2013-06-14 07:18:00,57.5,55.8,29.84,ENE,58,0.0,13.0,94,0.00,,,0.00,VWS V14.01,2013-06-14 11:18:00,
2013-06-14 07:23:00,57.6,55.9,29.85,ENE,58,0.0,13.0,94,0.00,,,0.00,VWS V14.01,2013-06-14 11:23:00,
2013-06-14 07:28:00,58.0,56.3,29.85,ENE,58,0.0,13.0,94,0.00,,,0.00,VWS V14.01,2013-06-14 11:28:00,
2013-06-14 07:33:00,58.1,56.4,29.85,ENE,58,0.0,13.0,94,0.00,,,0.00,VWS V14.01,2013-06-14 11:33:00,
2013-06-14 07:38:00,58.4,56.7,29.85,ENE,58,0.0,13.0,94,0.00,,,0.00,VWS V14.01,2013-06-14 11:38:00,
2013-06-14 07:43:00,58.6,56.9,29.85,ENE,58,0.0,13.0,94,0.00,,,0.00,VWS V14.01,2013-06-14 11:43:00,
2013-06-14 07:48:00,58.7,56.7,29.85,ENE,58,0.0,13.0,93,0.00,,,0.00,VWS V14.01,2013-06-14 11:48:00,
2013-06-14 07:53:00,59.0,57.0,29.86,ENE,58,0.0,13.0,93,0.00,,,0.00,VWS V14.01,2013-06-14 11:53:00,
2013-06-14 07:58:00,59.3,57.0,29.86,ENE,58,0.0,13.0,92,0.00,,,0.00,VWS V14.01,2013-06-14 11:58:00,
2013-06-14 08:03:00,59.5,57.2,29.86,ENE,58,0.0,13.0,92,0.00,,,0.00,VWS V14.01,2013-06-14 12:03:00,
2013-06-14 08:08:00,59.6,57.0,29.86,East,85,0.0,13.0,91,0.00,,,0.00,VWS V14.01,2013-06-14 12:08:00,
2013-06-14 08:13:00,59.9,57.3,29.86,East,85,0.0,13.0,91,0.00,,,0.00,VWS V14.01,2013-06-14 12:13:00,
2013-06-14 08:18:00,60.2,57.3,29.86,East,85,0.0,13.0,90,0.00,,,0.00,VWS V14.01,2013-06-14 12:18:00,
2013-06-14 08:24:00,60.5,57.2,29.88,East,85,0.0,13.0,89,0.00,,,0.00,VWS V14.01,2013-06-14 12:24:00,
2013-06-14 08:29:00,60.7,57.4,29.88,East,85,0.0,13.0,89,0.00,,,0.00,VWS V14.01,2013-06-14 12:29:00,
2013-06-14 08:34:00,61.0,57.4,29.88,East,85,0.0,13.0,88,0.00,,,0.00,VWS V14.01,2013-06-14 12:34:00,
2013-06-14 08:39:00,61.2,56.7,29.88,East,85,0.0,13.0,85,0.00,,,0.00,VWS V14.01,2013-06-14 12:39:00,
2013-06-14 08:44:00,61.6,57.0,29.88,East,85,0.0,13.0,85,0.00,,,0.00,VWS V14.01,2013-06-14 12:44:00,
2013-06-14 08:49:00,62.0,57.1,29.88,East,85,0.0,13.0,84,0.00,,,0.00,VWS V14.01,2013-06-14 12:49:00,
2013-06-14 08:54:00,62.1,56.9,29.88,WSW,240,0.0,13.0,83,0.00,,,0.00,VWS V14.01,2013-06-14 12:54:00,
2013-06-14 09:00:00,62.4,57.2,29.88,WSW,240,0.0,13.0,83,0.00,,,0.00,VWS V14.01,2013-06-14 13:00:00,
2013-06-14 09:05:00,62.7,57.5,29.88,WSW,240,0.0,13.0,83,0.00,,,0.00,VWS V14.01,2013-06-14 13:05:00,
2013-06-14 09:10:00,62.9,57.7,29.89,WSW,240,0.0,13.0,83,0.00,,,0.00,VWS V14.01,2013-06-14 13:10:00,
2013-06-14 09:15:00,63.1,57.9,29.89,WSW,240,0.0,13.0,83,0.00,,,0.00,VWS V14.01,2013-06-14 13:15:00,
2013-06-14 09:20:00,63.2,57.3,29.89,WSW,240,0.0,13.0,81,0.00,,,0.00,VWS V14.01,2013-06-14 13:20:00,
2013-06-14 09:25:00,63.4,57.5,29.90,WSW,240,0.0,13.0,81,0.00,,,0.00,VWS V14.01,2013-06-14 13:25:00,
2013-06-14 09:30:00,63.4,57.5,29.90,WSW,240,2.0,13.0,81,0.00,,,0.00,VWS V14.01,2013-06-14 13:30:00,
2013-06-14 09:35:00,63.5,57.6,29.90,WSW,240,0.0,13.0,81,0.00,,,0.00,VWS V14.01,2013-06-14 13:35:00,
2013-06-14 09:40:00,63.7,57.1,29.90,WSW,240,0.0,13.0,79,0.00,,,0.00,VWS V14.01,2013-06-14 13:40:00,
2013-06-14 09:45:00,64.2,57.6,29.90,WSW,240,0.0,13.0,79,0.00,,,0.00,VWS V14.01,2013-06-14 13:45:00,
2013-06-14 09:50:00,64.5,56.8,29.89,SW,235,1.0,13.0,76,0.00,,,0.00,VWS V14.01,2013-06-14 13:50:00,
2013-06-14 09:55:00,64.5,56.0,29.89,ENE,57,1.0,13.0,74,0.00,,,0.00,VWS V14.01,2013-06-14 13:55:00,
2013-06-14 10:00:00,64.7,57.3,29.89,NE,50,0.0,13.0,77,0.00,,,0.00,VWS V14.01,2013-06-14 14:00:00,
2013-06-14 10:05:00,65.0,57.6,29.90,NE,50,0.0,13.0,77,0.00,,,0.00,VWS V14.01,2013-06-14 14:05:00,
2013-06-14 10:11:00,65.2,57.5,29.90,NNW,327,0.0,13.0,76,0.00,,,0.00,VWS V14.01,2013-06-14 14:11:00,
2013-06-14 10:16:00,65.5,57.7,29.90,NNW,329,0.0,13.0,76,0.00,,,0.00,VWS V14.01,2013-06-14 14:16:00,
2013-06-14 10:21:00,65.5,57.0,29.90,NNW,329,0.0,13.0,74,0.00,,,0.00,VWS V14.01,2013-06-14 14:21:00,
2013-06-14 10:26:00,65.6,58.2,29.90,NNW,329,0.0,13.0,77,0.00,,,0.00,VWS V14.01,2013-06-14 14:26:00,
2013-06-14 10:31:00,66.0,58.6,29.90,NNW,329,0.0,13.0,77,0.00,,,0.00,VWS V14.01,2013-06-14 14:31:00,
2013-06-14 10:36:00,66.1,58.3,29.90,NNW,329,0.0,13.0,76,0.00,,,0.00,VWS V14.01,2013-06-14 14:36:00,
2013-06-14 10:41:00,66.3,58.5,29.90,SE,134,5.0,13.0,76,0.00,,,0.00,VWS V14.01,2013-06-14 14:41:00,
2013-06-14 10:46:00,66.3,58.2,29.90,SSW,210,0.0,13.0,75,0.00,,,0.00,VWS V14.01,2013-06-14 14:46:00,
2013-06-14 10:51:00,66.3,58.2,29.90,SW,231,0.0,13.0,75,0.00,,,0.00,VWS V14.01,2013-06-14 14:51:00,
2013-06-14 10:56:00,66.3,57.4,29.90,SW,226,0.0,13.0,73,0.00,,,0.00,VWS V14.01,2013-06-14 14:56:00,
2013-06-14 11:01:00,66.4,57.1,29.90,SW,226,1.0,13.0,72,0.00,,,0.00,VWS V14.01,2013-06-14 15:01:00,
2013-06-14 11:06:00,67.1,57.0,29.89,SW,226,2.0,13.0,70,0.00,,,0.00,VWS V14.01,2013-06-14 15:06:00,
2013-06-14 11:11:00,67.6,55.8,29.89,North,5,0.0,13.0,66,0.00,,,0.00,VWS V14.01,2013-06-14 15:11:00,
2013-06-14 11:16:00,68.1,55.9,29.89,NE,44,2.0,13.0,65,0.00,,,0.00,VWS V14.01,2013-06-14 15:16:00,
2013-06-14 11:21:00,67.9,56.1,29.89,South,183,1.0,13.0,66,0.00,,,0.00,VWS V14.01,2013-06-14 15:21:00,
2013-06-14 11:26:00,67.9,56.5,29.89,South,184,0.0,13.0,67,0.00,,,0.00,VWS V14.01,2013-06-14 15:26:00,
2013-06-14 11:32:00,67.6,55.8,29.89,ENE,61,4.0,13.0,66,0.00,,,0.00,VWS V14.01,2013-06-14 15:32:00,
2013-06-14 11:37:00,67.8,53.0,29.90,WSW,250,0.0,13.0,59,0.00,,,0.00,VWS V14.01,2013-06-14 15:37:00,
2013-06-14 11:42:00,68.3,54.3,29.90,West,265,0.0,13.0,61,0.00,,,0.00,VWS V14.01,2013-06-14 15:42:00,
2013-06-14 11:47:00,68.6,54.6,29.90,North,355,4.0,13.0,61,0.00,,,0.00,VWS V14.01,2013-06-14 15:47:00,
2013-06-14 11:52:00,68.9,53.5,29.90,North,355,1.0,13.0,58,0.00,,,0.00,VWS V14.01,2013-06-14 15:52:00,
2013-06-14 11:57:00,69.4,54.5,29.90,NW,312,0.0,13.0,59,0.00,,,0.00,VWS V14.01,2013-06-14 15:57:00,
2013-06-14 12:02:00,69.8,52.4,29.90,NNW,346,0.0,13.0,54,0.00,,,0.00,VWS V14.01,2013-06-14 16:02:00,
2013-06-14 12:07:00,70.3,53.4,29.90,ENE,61,4.0,13.0,55,0.00,,,0.00,VWS V14.01,2013-06-14 16:07:00,
2013-06-14 12:12:00,70.9,54.4,29.90,NW,304,1.0,13.0,56,0.00,,,0.00,VWS V14.01,2013-06-14 16:12:00,
2013-06-14 12:17:00,72.0,53.4,29.90,West,273,1.0,13.0,52,0.00,,,0.00,VWS V14.01,2013-06-14 16:17:00,
2013-06-14 12:22:00,72.1,52.5,29.91,West,263,3.0,13.0,50,0.00,,,0.00,VWS V14.01,2013-06-14 16:22:00,
2013-06-14 12:27:00,72.3,52.6,29.91,East,92,2.0,13.0,50,0.00,,,0.00,VWS V14.01,2013-06-14 16:27:00,
2013-06-14 12:32:00,72.1,55.1,29.91,NE,50,0.0,13.0,55,0.00,,,0.00,VWS V14.01,2013-06-14 16:32:00,
2013-06-14 12:37:00,71.8,54.3,29.90,East,86,5.0,13.0,54,0.00,,,0.00,VWS V14.01,2013-06-14 16:37:00,
2013-06-14 12:42:00,71.6,52.5,29.90,WSW,255,3.0,13.0,51,0.00,,,0.00,VWS V14.01,2013-06-14 16:42:00,
2013-06-14 12:47:00,72.8,55.2,29.90,North,11,3.0,13.0,54,0.00,,,0.00,VWS V14.01,2013-06-14 16:47:00,
2013-06-14 12:52:00,73.5,55.3,29.91,ENE,60,1.0,13.0,53,0.00,,,0.00,VWS V14.01,2013-06-14 16:52:00,
2013-06-14 12:57:00,72.8,55.2,29.91,ENE,73,2.0,13.0,54,0.00,,,0.00,VWS V14.01,2013-06-14 16:57:00,
2013-06-14 13:02:00,72.1,54.0,29.91,North,5,1.0,13.0,53,0.00,,,0.00,VWS V14.01,2013-06-14 17:02:00,
2013-06-14 13:07:00,72.1,54.6,29.91,North,5,1.0,13.0,54,0.00,,,0.00,VWS V14.01,2013-06-14 17:07:00,
2013-06-14 13:12:00,72.3,54.2,29.91,North,5,0.0,13.0,53,0.00,,,0.00,VWS V14.01,2013-06-14 17:12:00,
2013-06-14 13:18:00,72.7,55.1,29.91,NW,326,0.0,13.0,54,0.00,,,0.00,VWS V14.01,2013-06-14 17:18:00,
2013-06-14 13:23:00,73.3,53.6,29.92,ENE,61,0.0,13.0,50,0.00,,,0.00,VWS V14.01,2013-06-14 17:23:00,
2013-06-14 13:28:00,73.7,53.9,29.92,NNW,340,0.0,13.0,50,0.00,,,0.00,VWS V14.01,2013-06-14 17:28:00,
2013-06-14 13:33:00,73.5,54.3,29.92,NE,38,2.0,13.0,51,0.00,,,0.00,VWS V14.01,2013-06-14 17:33:00,
2013-06-14 13:38:00,73.3,54.1,29.93,WSW,240,2.0,13.0,51,0.00,,,0.00,VWS V14.01,2013-06-14 17:38:00,
2013-06-14 13:43:00,74.0,54.7,29.93,NW,315,2.0,13.0,51,0.00,,,0.00,VWS V14.01,2013-06-14 17:43:00,
2013-06-14 13:48:00,74.6,53.1,29.93,NNW,342,0.0,13.0,47,0.00,,,0.00,VWS V14.01,2013-06-14 17:48:00,
2013-06-14 13:53:00,74.6,54.2,29.92,ENE,65,4.0,13.0,49,0.00,,,0.00,VWS V14.01,2013-06-14 17:53:00,
2013-06-14 13:58:00,74.9,53.9,29.92,NE,46,2.0,13.0,48,0.00,,,0.00,VWS V14.01,2013-06-14 17:58:00,
2013-06-14 14:03:00,74.9,53.9,29.92,NE,46,0.0,13.0,48,0.00,,,0.00,VWS V14.01,2013-06-14 18:03:00,
2013-06-14 14:08:00,74.9,53.9,29.92,SSE,155,1.0,13.0,48,0.00,,,0.00,VWS V14.01,2013-06-14 18:08:00,
2013-06-14 14:13:00,74.7,54.8,29.92,West,274,0.0,13.0,50,0.00,,,0.00,VWS V14.01,2013-06-14 18:13:00,
2013-06-14 14:18:00,74.9,57.2,29.92,West,274,0.0,13.0,54,0.00,,,0.00,VWS V14.01,2013-06-14 18:18:00,
2013-06-14 14:23:00,73.9,54.1,29.92,ENE,78,1.0,13.0,50,0.00,,,0.00,VWS V14.01,2013-06-14 18:23:00,
2013-06-14 14:28:00,74.2,53.8,29.92,NNW,334,0.0,13.0,49,0.00,,,0.00,VWS V14.01,2013-06-14 18:28:00,
2013-06-14 14:33:00,75.1,53.5,29.92,North,5,2.0,13.0,47,0.00,,,0.00,VWS V14.01,2013-06-14 18:33:00,
2013-06-14 14:38:00,75.6,55.7,29.92,ENE,57,1.0,13.0,50,0.00,,,0.00,VWS V14.01,2013-06-14 18:38:00,
2013-06-14 14:43:00,76.3,54.0,29.92,WSW,257,0.0,13.0,46,0.00,,,0.00,VWS V14.01,2013-06-14 18:43:00,
2013-06-14 14:48:00,76.8,55.1,29.92,NE,54,2.0,13.0,47,0.00,,,0.00,VWS V14.01,2013-06-14 18:48:00,
2013-06-14 14:54:00,77.2,54.8,29.91,ENE,69,0.0,13.0,46,0.00,,,0.00,VWS V14.01,2013-06-14 18:54:00,
2013-06-14 14:59:00,77.7,53.5,29.91,ENE,66,4.0,13.0,43,0.00,,,0.00,VWS V14.01,2013-06-14 18:59:00,
2013-06-14 15:04:00,77.4,54.4,29.91,NNW,336,2.0,13.0,45,0.00,,,0.00,VWS V14.01,2013-06-14 19:04:00,
2013-06-14 15:09:00,77.2,53.6,29.92,NNW,331,1.0,13.0,44,0.00,,,0.00,VWS V14.01,2013-06-14 19:09:00,
2013-06-14 15:14:00,75.8,54.2,29.92,NNW,329,0.0,13.0,47,0.00,,,0.00,VWS V14.01,2013-06-14 19:14:00,
2013-06-14 15:19:00,74.9,52.8,29.92,NNW,347,0.0,13.0,46,0.00,,,0.00,VWS V14.01,2013-06-14 19:19:00,
2013-06-14 15:24:00,75.6,54.0,29.91,NNW,347,0.0,13.0,47,0.00,,,0.00,VWS V14.01,2013-06-14 19:24:00,
2013-06-14 15:29:00,77.2,55.4,29.91,NNW,347,1.0,13.0,47,0.00,,,0.00,VWS V14.01,2013-06-14 19:29:00,
2013-06-14 15:34:00,78.5,53.5,29.91,ENE,63,1.0,13.0,42,0.00,,,0.00,VWS V14.01,2013-06-14 19:34:00,
2013-06-14 15:39:00,78.3,54.0,29.91,East,94,2.0,13.0,43,0.00,,,0.00,VWS V14.01,2013-06-14 19:39:00,
2013-06-14 15:44:00,78.6,53.6,29.91,North,355,2.0,13.0,42,0.00,,,0.00,VWS V14.01,2013-06-14 19:44:00,
2013-06-14 15:49:00,77.9,53.0,29.91,North,355,0.0,13.0,42,0.00,,,0.00,VWS V14.01,2013-06-14 19:49:00,
2013-06-14 15:54:00,77.9,53.0,29.91,NW,323,1.0,13.0,42,0.00,,,0.00,VWS V14.01,2013-06-14 19:54:00,
2013-06-14 15:59:00,78.5,52.2,29.91,WSW,250,0.0,13.0,40,0.00,,,0.00,VWS V14.01,2013-06-14 19:59:00,
2013-06-14 16:04:00,79.0,54.6,29.91,South,170,1.0,13.0,43,0.00,,,0.00,VWS V14.01,2013-06-14 20:04:00,
2013-06-14 16:09:00,78.1,51.8,29.90,North,5,1.0,13.0,40,0.00,,,0.00,VWS V14.01,2013-06-14 20:09:00,
2013-06-14 16:15:00,78.5,51.5,29.90,NE,36,2.0,13.0,39,0.00,,,0.00,VWS V14.01,2013-06-14 20:15:00,
2013-06-14 16:20:00,77.9,52.3,29.90,WSW,242,3.0,13.0,41,0.00,,,0.00,VWS V14.01,2013-06-14 20:20:00,
2013-06-14 16:25:00,78.5,53.5,29.90,NNE,12,3.0,13.0,42,0.00,,,0.00,VWS V14.01,2013-06-14 20:25:00,
2013-06-14 16:30:00,78.8,53.8,29.90,NW,306,0.0,13.0,42,0.00,,,0.00,VWS V14.01,2013-06-14 20:30:00,
2013-06-14 16:35:00,79.2,52.1,29.90,NE,40,0.0,13.0,39,0.00,,,0.00,VWS V14.01,2013-06-14 20:35:00,
2013-06-14 16:40:00,79.0,55.2,29.90,ENE,57,0.0,13.0,44,0.00,,,0.00,VWS V14.01,2013-06-14 20:40:00,
2013-06-14 16:45:00,78.6,51.6,29.90,North,355,0.0,13.0,39,0.00,,,0.00,VWS V14.01,2013-06-14 20:45:00,
2013-06-14 16:50:00,78.8,52.5,29.90,North,355,0.0,13.0,40,0.00,,,0.00,VWS V14.01,2013-06-14 20:50:00,
2013-06-14 16:55:00,79.2,54.2,29.90,SW,227,0.0,13.0,42,0.00,,,0.00,VWS V14.01,2013-06-14 20:55:00,
2013-06-14 17:00:00,79.8,55.3,29.90,North,360,3.0,13.0,43,0.00,,,0.00,VWS V14.01,2013-06-14 21:00:00,
2013-06-14 17:05:00,79.4,55.0,29.90,WSW,243,0.0,13.0,43,0.00,,,0.00,VWS V14.01,2013-06-14 21:05:00,
2013-06-14 17:10:00,79.2,56.7,29.90,NNW,341,0.0,13.0,46,0.00,,,0.00,VWS V14.01,2013-06-14 21:10:00,
2013-06-14 17:15:00,78.8,56.3,29.90,NW,313,0.0,13.0,46,0.00,,,0.00,VWS V14.01,2013-06-14 21:15:00,
2013-06-14 17:20:00,78.5,54.2,29.90,NNE,12,1.0,13.0,43,0.00,,,0.00,VWS V14.01,2013-06-14 21:20:00,
2013-06-14 17:25:00,77.9,56.7,29.90,NE,48,3.0,13.0,48,0.00,,,0.00,VWS V14.01,2013-06-14 21:25:00,
2013-06-14 17:30:00,77.2,53.0,29.90,NNE,23,0.0,13.0,43,0.00,,,0.00,VWS V14.01,2013-06-14 21:30:00,
2013-06-14 17:35:00,77.4,53.8,29.91,North,355,0.0,13.0,44,0.00,,,0.00,VWS V14.01,2013-06-14 21:35:00,
2013-06-14 17:40:00,78.1,53.2,29.91,North,355,0.0,13.0,42,0.00,,,0.00,VWS V14.01,2013-06-14 21:40:00,
2013-06-14 17:46:00,79.0,53.3,29.91,WSW,252,0.0,13.0,41,0.00,,,0.00,VWS V14.01,2013-06-14 21:46:00,
2013-06-14 17:51:00,79.4,55.0,29.91,WSW,252,0.0,13.0,43,0.00,,,0.00,VWS V14.01,2013-06-14 21:51:00,
2013-06-14 17:56:00,79.8,54.0,29.91,WSW,252,0.0,13.0,41,0.00,,,0.00,VWS V14.01,2013-06-14 21:56:00,
2013-06-14 18:01:00,79.4,53.0,29.91,North,5,1.0,13.0,40,0.00,,,0.00,VWS V14.01,2013-06-14 22:01:00,
2013-06-14 18:06:00,78.5,54.2,29.90,WSW,237,1.0,13.0,43,0.00,,,0.00,VWS V14.01,2013-06-14 22:06:00,
2013-06-14 18:11:00,78.3,53.3,29.90,North,11,2.0,13.0,42,0.00,,,0.00,VWS V14.01,2013-06-14 22:11:00,
2013-06-14 18:16:00,77.7,54.1,29.90,North,11,0.0,13.0,44,0.00,,,0.00,VWS V14.01,2013-06-14 22:16:00,
2013-06-14 18:21:00,77.4,53.8,29.91,NW,308,0.0,13.0,44,0.00,,,0.00,VWS V14.01,2013-06-14 22:21:00,
2013-06-14 18:26:00,77.0,52.8,29.91,NW,308,2.0,13.0,43,0.00,,,0.00,VWS V14.01,2013-06-14 22:26:00,
2013-06-14 18:31:00,76.1,53.2,29.91,NNE,24,0.0,13.0,45,0.00,,,0.00,VWS V14.01,2013-06-14 22:31:00,
2013-06-14 18:36:00,75.8,53.6,29.90,NNW,331,1.0,13.0,46,0.00,,,0.00,VWS V14.01,2013-06-14 22:36:00,
2013-06-14 18:41:00,75.6,52.8,29.90,NNW,331,0.0,13.0,45,0.00,,,0.00,VWS V14.01,2013-06-14 22:41:00,
2013-06-14 18:46:00,75.3,53.1,29.90,South,179,0.0,13.0,46,0.00,,,0.00,VWS V14.01,2013-06-14 22:46:00,
2013-06-14 18:51:00,75.1,53.5,29.90,South,179,0.0,13.0,47,0.00,,,0.00,VWS V14.01,2013-06-14 22:51:00,
2013-06-14 18:56:00,74.7,52.6,29.90,NW,317,0.0,13.0,46,0.00,,,0.00,VWS V14.01,2013-06-14 22:56:00,
2013-06-14 19:01:00,74.7,54.8,29.90,NW,317,0.0,13.0,50,0.00,,,0.00,VWS V14.01,2013-06-14 23:01:00,
2013-06-14 19:06:00,74.4,52.3,29.91,East,85,0.0,13.0,46,0.00,,,0.00,VWS V14.01,2013-06-14 23:06:00,
2013-06-14 19:11:00,74.0,51.9,29.91,East,85,0.0,13.0,46,0.00,,,0.00,VWS V14.01,2013-06-14 23:11:00,
2013-06-14 19:16:00,74.0,53.7,29.91,East,84,1.0,13.0,49,0.00,,,0.00,VWS V14.01,2013-06-14 23:16:00,
2013-06-14 19:21:00,73.7,58.0,29.90,East,84,0.0,13.0,58,0.00,,,0.00,VWS V14.01,2013-06-14 23:21:00,
2013-06-14 19:26:00,73.2,56.1,29.90,ENE,63,0.0,13.0,55,0.00,,,0.00,VWS V14.01,2013-06-14 23:26:00,
2013-06-14 19:31:00,72.7,54.1,29.90,ENE,74,0.0,13.0,52,0.00,,,0.00,VWS V14.01,2013-06-14 23:31:00,
2013-06-14 19:36:00,72.7,52.5,29.91,North,355,0.0,13.0,49,0.00,,,0.00,VWS V14.01,2013-06-14 23:36:00,
2013-06-14 19:42:00,72.7,56.1,29.91,North,355,0.0,13.0,56,0.00,,,0.00,VWS V14.01,2013-06-14 23:42:00,
2013-06-14 19:47:00,72.5,56.9,29.91,North,355,0.0,13.0,58,0.00,,,0.00,VWS V14.01,2013-06-14 23:47:00,
2013-06-14 19:52:00,72.0,58.3,29.91,North,355,0.0,13.0,62,0.00,,,0.00,VWS V14.01,2013-06-14 23:52:00,
2013-06-14 19:57:00,70.9,58.6,29.91,NW,315,0.0,13.0,65,0.00,,,0.00,VWS V14.01,2013-06-14 23:57:00,
2013-06-14 20:02:00,70.4,58.5,29.91,NW,315,0.0,13.0,66,0.00,,,0.00,VWS V14.01,2013-06-15 00:02:00,
2013-06-14 20:07:00,69.8,57.9,29.91,NW,315,0.0,13.0,66,0.00,,,0.00,VWS V14.01,2013-06-15 00:07:00,
2013-06-14 20:12:00,69.4,58.0,29.91,NW,315,0.0,13.0,67,0.00,,,0.00,VWS V14.01,2013-06-15 00:12:00,
2013-06-14 20:17:00,68.9,57.9,29.91,NW,315,0.0,13.0,68,0.00,,,0.00,VWS V14.01,2013-06-15 00:17:00,
2013-06-14 20:22:00,68.3,58.2,29.92,NW,315,0.0,13.0,70,0.00,,,0.00,VWS V14.01,2013-06-15 00:22:00,
2013-06-14 20:27:00,67.8,57.7,29.92,NW,315,0.0,13.0,70,0.00,,,0.00,VWS V14.01,2013-06-15 00:27:00,
2013-06-14 20:32:00,67.1,57.8,29.92,NW,315,0.0,13.0,72,0.00,,,0.00,VWS V14.01,2013-06-15 00:32:00,
2013-06-14 20:37:00,66.6,57.3,29.92,NW,315,0.0,13.0,72,0.00,,,0.00,VWS V14.01,2013-06-15 00:37:00,
2013-06-14 20:42:00,66.3,57.4,29.92,NW,315,0.0,13.0,73,0.00,,,0.00,VWS V14.01,2013-06-15 00:42:00,
2013-06-14 20:47:00,65.8,57.3,29.92,NW,315,0.0,13.0,74,0.00,,,0.00,VWS V14.01,2013-06-15 00:47:00,
2013-06-14 20:52:00,65.3,57.2,29.93,NW,315,0.0,13.0,75,0.00,,,0.00,VWS V14.01,2013-06-15 00:52:00,
2013-06-14 20:57:00,64.8,57.1,29.93,NW,315,0.0,13.0,76,0.00,,,0.00,VWS V14.01,2013-06-15 00:57:00,
2013-06-14 21:02:00,64.5,57.1,29.93,NW,315,0.0,13.0,77,0.00,,,0.00,VWS V14.01,2013-06-15 01:02:00,
2013-06-14 21:07:00,63.9,57.3,29.94,NW,315,0.0,13.0,79,0.00,,,0.00,VWS V14.01,2013-06-15 01:07:00,
2013-06-14 21:12:00,63.4,57.1,29.94,NW,315,0.0,13.0,80,0.00,,,0.00,VWS V14.01,2013-06-15 01:12:00,
2013-06-14 21:17:00,62.9,57.0,29.94,NW,315,0.0,13.0,81,0.00,,,0.00,VWS V14.01,2013-06-15 01:17:00,
2013-06-14 21:22:00,62.6,57.4,29.93,NW,315,0.0,13.0,83,0.00,,,0.00,VWS V14.01,2013-06-15 01:22:00,
2013-06-14 21:28:00,62.3,57.4,29.93,NW,315,0.0,13.0,84,0.00,,,0.00,VWS V14.01,2013-06-15 01:28:00,
2013-06-14 21:33:00,62.0,57.1,29.93,NW,315,0.0,13.0,84,0.00,,,0.00,VWS V14.01,2013-06-15 01:33:00,
2013-06-14 21:38:00,61.8,56.9,29.94,NW,315,1.0,13.0,84,0.00,,,0.00,VWS V14.01,2013-06-15 01:38:00,
2013-06-14 21:43:00,61.5,57.0,29.94,NW,315,0.0,13.0,85,0.00,,,0.00,VWS V14.01,2013-06-15 01:43:00,
2013-06-14 21:48:00,61.3,56.8,29.94,NW,315,0.0,13.0,85,0.00,,,0.00,VWS V14.01,2013-06-15 01:48:00,
2013-06-14 21:53:00,61.0,56.5,29.94,NW,315,0.0,13.0,85,0.00,,,0.00,VWS V14.01,2013-06-15 01:53:00,
2013-06-14 21:58:00,60.9,56.4,29.94,NW,315,0.0,13.0,85,0.00,,,0.00,VWS V14.01,2013-06-15 01:58:00,
2013-06-14 22:03:00,60.7,56.5,29.94,NW,315,0.0,13.0,86,0.00,,,0.00,VWS V14.01,2013-06-15 02:03:00,
2013-06-14 22:08:00,60.5,56.6,29.95,NW,315,0.0,13.0,87,0.00,,,0.00,VWS V14.01,2013-06-15 02:08:00,
2013-06-14 22:13:00,60.4,55.9,29.95,NW,315,0.0,13.0,85,0.00,,,0.00,VWS V14.01,2013-06-15 02:13:00,
2013-06-14 22:18:00,60.2,55.7,29.95,NW,315,0.0,13.0,85,0.00,,,0.00,VWS V14.01,2013-06-15 02:18:00,
2013-06-14 22:23:00,60.1,55.9,29.96,NW,315,0.0,13.0,86,0.00,,,0.00,VWS V14.01,2013-06-15 02:23:00,
2013-06-14 22:28:00,59.8,55.6,29.96,NW,315,0.0,13.0,86,0.00,,,0.00,VWS V14.01,2013-06-15 02:28:00,
2013-06-14 22:33:00,59.6,55.7,29.96,NW,315,0.0,13.0,87,0.00,,,0.00,VWS V14.01,2013-06-15 02:33:00,
2013-06-14 22:38:00,59.5,55.6,29.97,NW,315,0.0,13.0,87,0.00,,,0.00,VWS V14.01,2013-06-15 02:38:00,
2013-06-14 22:43:00,59.3,55.4,29.97,NW,315,0.0,13.0,87,0.00,,,0.00,VWS V14.01,2013-06-15 02:43:00,
2013-06-14 22:48:00,59.2,55.3,29.97,NW,315,0.0,13.0,87,0.00,,,0.00,VWS V14.01,2013-06-15 02:48:00,
2013-06-14 22:53:00,59.0,55.5,29.98,NW,315,0.0,13.0,88,0.00,,,0.00,VWS V14.01,2013-06-15 02:53:00,
2013-06-14 22:58:00,58.9,55.0,29.98,NW,315,0.0,13.0,87,0.00,,,0.00,VWS V14.01,2013-06-15 02:58:00,
2013-06-14 23:03:00,58.7,55.2,29.98,NW,315,0.0,13.0,88,0.00,,,0.00,VWS V14.01,2013-06-15 03:03:00,
2013-06-14 23:08:00,58.4,54.9,29.98,NW,315,0.0,13.0,88,0.00,,,0.00,VWS V14.01,2013-06-15 03:08:00,
2013-06-14 23:13:00,58.4,54.9,29.98,NW,315,0.0,13.0,88,0.00,,,0.00,VWS V14.01,2013-06-15 03:13:00,
2013-06-14 23:19:00,58.3,54.8,29.98,NW,315,0.0,13.0,88,0.00,,,0.00,VWS V14.01,2013-06-15 03:19:00,
2013-06-14 23:24:00,58.1,54.6,29.98,NW,315,0.0,13.0,88,0.00,,,0.00,VWS V14.01,2013-06-15 03:24:00,
2013-06-14 23:29:00,58.0,54.8,29.98,NW,315,0.0,13.0,89,0.00,,,0.00,VWS V14.01,2013-06-15 03:29:00,
2013-06-14 23:34:00,57.8,54.3,29.98,NW,315,0.0,13.0,88,0.00,,,0.00,VWS V14.01,2013-06-15 03:34:00,
2013-06-14 23:39:00,57.8,54.3,29.98,NW,315,0.0,13.0,88,0.00,,,0.00,VWS V14.01,2013-06-15 03:39:00,
2013-06-14 23:44:00,57.6,54.1,29.98,NW,315,0.0,13.0,88,0.00,,,0.00,VWS V14.01,2013-06-15 03:44:00,
2013-06-14 23:49:00,57.6,54.4,29.98,NW,315,0.0,13.0,89,0.00,,,0.00,VWS V14.01,2013-06-15 03:49:00,
2013-06-14 23:54:00,57.5,54.3,29.99,NW,315,0.0,13.0,89,0.00,,,0.00,VWS V14.01,2013-06-15 03:54:00,
2013-06-14 23:59:00,57.5,54.3,29.99,NW,315,0.0,13.0,89,0.00,,,0.00,VWS V14.01,2013-06-15 03:59:00,